sensor_id;sensor_type;location;lat;lon;timestamp;pressure;altitude;pressure_sealevel;temperature;humidity
55610;BME280;41486;52.502;13.486;2023-03-13T00:01:10;100069.63;;;5.90;100.00
55610;BME280;41486;52.502;13.486;2023-03-13T00:03:39;100074.34;;;5.97;100.00
55610;BME280;41486;52.502;13.486;2023-03-13T00:06:08;100075.00;;;6.01;100.00
55610;BME280;41486;52.502;13.486;2023-03-13T00:08:36;100078.59;;;6.00;100.00
55610;BME280;41486;52.502;13.486;2023-03-13T00:11:06;100078.16;;;6.06;100.00
55610;BME280;41486;52.502;13.486;2023-03-13T00:13:35;100077.72;;;5.99;100.00
55610;BME280;41486;52.502;13.486;2023-03-13T00:16:05;100068.66;;;6.18;100.00
55610;BME280;41486;52.502;13.486;2023-03-13T00:18:33;100066.56;;;6.10;100.00
55610;BME280;41486;52.502;13.486;2023-03-13T00:21:04;100071.28;;;6.18;100.00
55610;BME280;41486;52.502;13.486;2023-03-13T00:23:36;100055.19;;;6.11;100.00
55610;BME280;41486;52.502;13.486;2023-03-13T00:26:07;100060.84;;;6.18;100.00
55610;BME280;41486;52.502;13.486;2023-03-13T00:28:36;100062.09;;;6.25;100.00
55610;BME280;41486;52.502;13.486;2023-03-13T00:31:06;100060.94;;;6.29;100.00
55610;BME280;41486;52.502;13.486;2023-03-13T00:33:36;100061.78;;;6.30;100.00
55610;BME280;41486;52.502;13.486;2023-03-13T00:36:06;100055.06;;;6.26;100.00
55610;BME280;41486;52.502;13.486;2023-03-13T00:38:36;100058.13;;;6.32;100.00
55610;BME280;41486;52.502;13.486;2023-03-13T00:41:05;100047.47;;;6.36;100.00
55610;BME280;41486;52.502;13.486;2023-03-13T00:43:35;100047.47;;;6.49;100.00
55610;BME280;41486;52.502;13.486;2023-03-13T00:46:03;100043.25;;;6.46;100.00
55610;BME280;41486;52.502;13.486;2023-03-13T00:48:32;100037.63;;;6.52;100.00
55610;BME280;41486;52.502;13.486;2023-03-13T00:51:00;100043.06;;;6.49;100.00
55610;BME280;41486;52.502;13.486;2023-03-13T00:53:28;100027.25;;;6.51;100.00
55610;BME280;41486;52.502;13.486;2023-03-13T00:55:58;100026.94;;;6.55;100.00
55610;BME280;41486;52.502;13.486;2023-03-13T00:58:29;100023.59;;;6.53;100.00
55610;BME280;41486;52.502;13.486;2023-03-13T01:01:05;100027.88;;;6.54;100.00
55610;BME280;41486;52.502;13.486;2023-03-13T01:03:34;100023.81;;;6.50;100.00
55610;BME280;41486;52.502;13.486;2023-03-13T01:06:04;100024.03;;;6.34;100.00
55610;BME280;41486;52.502;13.486;2023-03-13T01:08:33;100028.63;;;6.30;100.00
55610;BME280;41486;52.502;13.486;2023-03-13T01:11:05;100018.50;;;6.26;100.00
55610;BME280;41486;52.502;13.486;2023-03-13T01:13:33;100019.34;;;6.39;100.00
55610;BME280;41486;52.502;13.486;2023-03-13T01:16:03;100013.25;;;6.39;100.00
55610;BME280;41486;52.502;13.486;2023-03-13T01:18:33;100013.25;;;6.39;100.00
55610;BME280;41486;52.502;13.486;2023-03-13T01:21:01;100014.84;;;6.28;100.00
55610;BME280;41486;52.502;13.486;2023-03-13T01:23:30;100019.22;;;6.41;100.00
55610;BME280;41486;52.502;13.486;2023-03-13T01:25:58;100019.13;;;6.29;100.00
55610;BME280;41486;52.502;13.486;2023-03-13T01:28:27;100015.78;;;6.40;100.00
55610;BME280;41486;52.502;13.486;2023-03-13T01:30:55;100025.19;;;6.43;100.00
55610;BME280;41486;52.502;13.486;2023-03-13T01:33:24;100016.00;;;6.37;100.00
55610;BME280;41486;52.502;13.486;2023-03-13T01:36:00;100019.22;;;6.28;100.00
55610;BME280;41486;52.502;13.486;2023-03-13T01:38:28;100019.13;;;6.29;100.00
55610;BME280;41486;52.502;13.486;2023-03-13T01:40:56;100024.03;;;6.34;100.00
55610;BME280;41486;52.502;13.486;2023-03-13T01:43:28;100016.00;;;6.37;100.00
55610;BME280;41486;52.502;13.486;2023-03-13T01:46:04;100007.28;;;6.50;100.00
55610;BME280;41486;52.502;13.486;2023-03-13T01:48:59;100002.50;;;6.30;100.00
55610;BME280;41486;52.502;13.486;2023-03-13T01:51:31;100005.03;;;6.32;100.00
55610;BME280;41486;52.502;13.486;2023-03-13T01:54:04;100002.19;;;6.48;100.00
55610;BME280;41486;52.502;13.486;2023-03-13T01:56:37;99997.06;;;6.34;100.00
55610;BME280;41486;52.502;13.486;2023-03-13T01:59:10;99987.56;;;6.32;100.00
55610;BME280;41486;52.502;13.486;2023-03-13T02:01:43;99988.47;;;6.44;100.00
55610;BME280;41486;52.502;13.486;2023-03-13T02:04:14;99984.75;;;6.36;100.00
55610;BME280;41486;52.502;13.486;2023-03-13T02:06:45;99985.06;;;6.31;100.00
55610;BME280;41486;52.502;13.486;2023-03-13T02:09:18;99986.06;;;6.41;100.00
55610;BME280;41486;52.502;13.486;2023-03-13T02:11:51;99983.06;;;6.35;100.00
55610;BME280;41486;52.502;13.486;2023-03-13T02:14:26;99974.94;;;6.26;100.00
55610;BME280;41486;52.502;13.486;2023-03-13T02:16:55;99966.97;;;6.28;100.00
55610;BME280;41486;52.502;13.486;2023-03-13T02:19:27;99959.25;;;6.26;100.00
55610;BME280;41486;52.502;13.486;2023-03-13T02:22:01;99958.63;;;6.36;100.00
55610;BME280;41486;52.502;13.486;2023-03-13T02:24:37;99957.13;;;6.31;100.00
55610;BME280;41486;52.502;13.486;2023-03-13T02:27:09;99955.59;;;6.16;100.00
55610;BME280;41486;52.502;13.486;2023-03-13T02:29:40;99956.19;;;6.32;100.00
55610;BME280;41486;52.502;13.486;2023-03-13T02:32:09;99953.41;;;6.10;100.00
55610;BME280;41486;52.502;13.486;2023-03-13T02:34:39;99947.25;;;6.24;100.00
55610;BME280;41486;52.502;13.486;2023-03-13T02:37:09;99946.31;;;6.25;100.00
55610;BME280;41486;52.502;13.486;2023-03-13T02:39:42;99941.47;;;6.19;100.00
55610;BME280;41486;52.502;13.486;2023-03-13T02:42:13;99944.00;;;6.20;100.00
55610;BME280;41486;52.502;13.486;2023-03-13T02:44:45;99943.03;;;6.34;100.00
55610;BME280;41486;52.502;13.486;2023-03-13T02:47:17;99935.19;;;6.34;100.00
55610;BME280;41486;52.502;13.486;2023-03-13T02:49:45;99924.75;;;6.21;100.00
55610;BME280;41486;52.502;13.486;2023-03-13T02:52:18;99931.66;;;6.09;100.00
55610;BME280;41486;52.502;13.486;2023-03-13T02:54:50;99927.41;;;6.08;100.00
55610;BME280;41486;52.502;13.486;2023-03-13T02:57:22;99916.72;;;6.11;100.00
55610;BME280;41486;52.502;13.486;2023-03-13T02:59:50;99917.34;;;6.15;100.00
55610;BME280;41486;52.502;13.486;2023-03-13T03:02:18;99907.94;;;6.25;100.00
55610;BME280;41486;52.502;13.486;2023-03-13T03:04:46;99904.59;;;6.23;100.00
55610;BME280;41486;52.502;13.486;2023-03-13T03:07:14;99897.69;;;6.22;100.00
55610;BME280;41486;52.502;13.486;2023-03-13T03:09:43;99894.69;;;6.15;100.00
55610;BME280;41486;52.502;13.486;2023-03-13T03:12:16;99889.31;;;6.30;100.00
55610;BME280;41486;52.502;13.486;2023-03-13T03:14:46;99880.72;;;6.41;100.00
55610;BME280;41486;52.502;13.486;2023-03-13T03:17:14;99880.72;;;6.41;100.00
55610;BME280;41486;52.502;13.486;2023-03-13T03:19:42;99870.19;;;6.29;100.00
55610;BME280;41486;52.502;13.486;2023-03-13T03:22:10;99881.66;;;6.40;100.00
55610;BME280;41486;52.502;13.486;2023-03-13T03:24:38;99880.50;;;6.44;100.00
55610;BME280;41486;52.502;13.486;2023-03-13T03:27:06;99879.31;;;6.48;100.00
55610;BME280;41486;52.502;13.486;2023-03-13T03:29:40;99874.50;;;6.55;100.00
55610;BME280;41486;52.502;13.486;2023-03-13T03:32:10;99875.84;;;6.60;100.00
55610;BME280;41486;52.502;13.486;2023-03-13T03:34:38;99874.09;;;6.48;100.00
55610;BME280;41486;52.502;13.486;2023-03-13T03:37:06;99872.09;;;6.52;100.00
55610;BME280;41486;52.502;13.486;2023-03-13T03:39:35;99868.00;;;6.60;100.00
55610;BME280;41486;52.502;13.486;2023-03-13T03:42:04;99865.72;;;6.56;100.00
55610;BME280;41486;52.502;13.486;2023-03-13T03:44:32;99870.50;;;6.62;100.00
55610;BME280;41486;52.502;13.486;2023-03-13T03:47:02;99866.66;;;6.55;100.00
55610;BME280;41486;52.502;13.486;2023-03-13T03:49:36;99862.00;;;6.71;100.00
55610;BME280;41486;52.502;13.486;2023-03-13T03:52:05;99853.03;;;6.62;100.00
55610;BME280;41486;52.502;13.486;2023-03-13T03:54:37;99845.44;;;6.71;100.00
55610;BME280;41486;52.502;13.486;2023-03-13T03:57:05;99842.75;;;6.72;100.00
55610;BME280;41486;52.502;13.486;2023-03-13T03:59:35;99844.78;;;6.80;100.00
55610;BME280;41486;52.502;13.486;2023-03-13T04:02:06;99840.13;;;6.72;100.00
55610;BME280;41486;52.502;13.486;2023-03-13T04:04:36;99838.63;;;6.81;100.00
55610;BME280;41486;52.502;13.486;2023-03-13T04:07:27;99822.53;;;6.74;100.00
55610;BME280;41486;52.502;13.486;2023-03-13T04:09:55;99829.56;;;6.74;100.00
55610;BME280;41486;52.502;13.486;2023-03-13T04:12:29;99824.97;;;6.89;100.00
55610;BME280;41486;52.502;13.486;2023-03-13T04:14:57;99819.13;;;6.85;100.00
55610;BME280;41486;52.502;13.486;2023-03-13T04:17:25;99811.91;;;6.89;100.00
55610;BME280;41486;52.502;13.486;2023-03-13T04:19:55;99813.22;;;6.94;100.00
55610;BME280;41486;52.502;13.486;2023-03-13T04:22:23;99810.84;;;6.91;100.00
55610;BME280;41486;52.502;13.486;2023-03-13T04:24:56;99805.59;;;6.91;100.00
55610;BME280;41486;52.502;13.486;2023-03-13T04:27:26;99800.38;;;6.91;100.00
55610;BME280;41486;52.502;13.486;2023-03-13T04:29:54;99801.84;;;7.07;100.00
55610;BME280;41486;52.502;13.486;2023-03-13T04:32:57;99791.00;;;7.00;100.00
55610;BME280;41486;52.502;13.486;2023-03-13T04:35:41;99786.84;;;6.98;100.00
55610;BME280;41486;52.502;13.486;2023-03-13T04:38:12;99785.75;;;7.00;100.00
55610;BME280;41486;52.502;13.486;2023-03-13T04:40:57;99777.34;;;7.08;100.00
55610;BME280;41486;52.502;13.486;2023-03-13T04:43:47;99778.41;;;7.05;100.00
55610;BME280;41486;52.502;13.486;2023-03-13T04:46:37;99775.09;;;7.03;100.00
55610;BME280;41486;52.502;13.486;2023-03-13T04:49:23;99769.25;;;7.11;100.00
55610;BME280;41486;52.502;13.486;2023-03-13T04:52:15;99760.56;;;6.99;100.00
55610;BME280;41486;52.502;13.486;2023-03-13T04:55:02;99758.28;;;6.94;100.00
55610;BME280;41486;52.502;13.486;2023-03-13T04:57:42;99746.78;;;7.08;100.00
55610;BME280;41486;52.502;13.486;2023-03-13T05:00:23;99739.16;;;7.05;100.00
55610;BME280;41486;52.502;13.486;2023-03-13T05:03:29;99737.00;;;6.99;100.00
55610;BME280;41486;52.502;13.486;2023-03-13T05:06:27;99732.63;;;7.11;100.00
55610;BME280;41486;52.502;13.486;2023-03-13T05:09:05;99731.94;;;7.20;100.00
55610;BME280;41486;52.502;13.486;2023-03-13T05:11:56;99722.63;;;7.05;100.00
55610;BME280;41486;52.502;13.486;2023-03-13T05:14:24;99720.16;;;7.03;100.00
55610;BME280;41486;52.502;13.486;2023-03-13T05:17:09;99701.00;;;7.14;100.00
55610;BME280;41486;52.502;13.486;2023-03-13T05:19:56;99690.06;;;7.20;100.00
55610;BME280;41486;52.502;13.486;2023-03-13T05:22:54;99690.06;;;7.20;100.00
55610;BME280;41486;52.502;13.486;2023-03-13T05:25:57;99686.38;;;7.00;100.00
55610;BME280;41486;52.502;13.486;2023-03-13T05:28:34;99683.16;;;7.08;100.00
55610;BME280;41486;52.502;13.486;2023-03-13T05:31:37;99681.59;;;7.05;100.00
55610;BME280;41486;52.502;13.486;2023-03-13T05:34:31;99681.00;;;7.02;100.00
55610;BME280;41486;52.502;13.486;2023-03-13T05:37:23;99677.94;;;7.08;100.00
55610;BME280;41486;52.502;13.486;2023-03-13T05:40:09;99659.47;;;6.98;100.00
55610;BME280;41486;52.502;13.486;2023-03-13T05:42:53;99661.28;;;7.09;100.00
55610;BME280;41486;52.502;13.486;2023-03-13T05:45:31;99654.38;;;6.97;100.00
55610;BME280;41486;52.502;13.486;2023-03-13T05:48:31;99655.09;;;6.99;100.00
55610;BME280;41486;52.502;13.486;2023-03-13T05:51:13;99641.19;;;6.98;100.00
55610;BME280;41486;52.502;13.486;2023-03-13T05:53:44;99641.91;;;7.00;100.00
55610;BME280;41486;52.502;13.486;2023-03-13T05:56:30;99632.97;;;7.03;100.00
55610;BME280;41486;52.502;13.486;2023-03-13T05:59:12;99629.66;;;6.89;100.00
55610;BME280;41486;52.502;13.486;2023-03-13T06:01:43;99624.41;;;6.89;100.00
55610;BME280;41486;52.502;13.486;2023-03-13T06:04:18;99622.75;;;7.00;100.00
55610;BME280;41486;52.502;13.486;2023-03-13T06:06:47;99615.38;;;7.05;100.00
55610;BME280;41486;52.502;13.486;2023-03-13T06:09:16;99615.03;;;6.87;100.00
55610;BME280;41486;52.502;13.486;2023-03-13T06:11:44;99617.75;;;6.97;100.00
55610;BME280;41486;52.502;13.486;2023-03-13T06:14:13;99614.06;;;6.99;100.00
55610;BME280;41486;52.502;13.486;2023-03-13T06:16:48;99619.19;;;7.01;100.00
55610;BME280;41486;52.502;13.486;2023-03-13T06:19:19;99606.00;;;7.02;100.00
55610;BME280;41486;52.502;13.486;2023-03-13T06:21:48;99610.28;;;7.03;100.00
55610;BME280;41486;52.502;13.486;2023-03-13T06:24:16;99594.94;;;6.99;100.00
55610;BME280;41486;52.502;13.486;2023-03-13T06:26:47;99585.88;;;7.14;100.00
55610;BME280;41486;52.502;13.486;2023-03-13T06:29:17;99580.56;;;7.04;100.00
55610;BME280;41486;52.502;13.486;2023-03-13T06:31:45;99575.91;;;7.08;100.00
55610;BME280;41486;52.502;13.486;2023-03-13T06:34:14;99572.53;;;7.17;100.00
55610;BME280;41486;52.502;13.486;2023-03-13T06:36:42;99564.59;;;7.07;100.00
55610;BME280;41486;52.502;13.486;2023-03-13T06:39:10;99561.38;;;7.15;100.00
55610;BME280;41486;52.502;13.486;2023-03-13T06:41:38;99555.53;;;7.23;100.00
55610;BME280;41486;52.502;13.486;2023-03-13T06:44:07;99547.06;;;7.31;100.00
55610;BME280;41486;52.502;13.486;2023-03-13T06:46:36;99539.19;;;7.42;100.00
55610;BME280;41486;52.502;13.486;2023-03-13T06:49:05;99531.22;;;7.44;100.00
55610;BME280;41486;52.502;13.486;2023-03-13T06:51:33;99528.59;;;7.44;100.00
55610;BME280;41486;52.502;13.486;2023-03-13T06:54:01;99519.22;;;7.41;100.00
55610;BME280;41486;52.502;13.486;2023-03-13T06:56:29;99518.44;;;7.50;100.00
55610;BME280;41486;52.502;13.486;2023-03-13T06:59:16;99503.78;;;7.59;100.00
55610;BME280;41486;52.502;13.486;2023-03-13T07:01:45;99504.47;;;7.40;100.00
55610;BME280;41486;52.502;13.486;2023-03-13T07:04:13;99502.53;;;7.42;100.00
55610;BME280;41486;52.502;13.486;2023-03-13T07:06:42;99492.16;;;7.52;100.00
55610;BME280;41486;52.502;13.486;2023-03-13T07:09:10;99496.88;;;7.58;100.00
55610;BME280;41486;52.502;13.486;2023-03-13T07:11:38;99496.75;;;7.60;100.00
55610;BME280;41486;52.502;13.486;2023-03-13T07:14:06;99493.22;;;7.49;100.00
55610;BME280;41486;52.502;13.486;2023-03-13T07:16:45;99496.03;;;7.57;100.00
55610;BME280;41486;52.502;13.486;2023-03-13T07:19:13;99481.31;;;7.56;100.00
55610;BME280;41486;52.502;13.486;2023-03-13T07:21:42;99494.69;;;7.42;100.00
55610;BME280;41486;52.502;13.486;2023-03-13T07:24:10;99489.41;;;7.53;100.00
55610;BME280;41486;52.502;13.486;2023-03-13T07:26:38;99497.13;;;7.55;100.00
55610;BME280;41486;52.502;13.486;2023-03-13T07:29:20;99483.47;;;7.51;100.00
55610;BME280;41486;52.502;13.486;2023-03-13T07:31:49;99486.78;;;7.53;100.00
55610;BME280;41486;52.502;13.486;2023-03-13T07:34:17;99483.09;;;7.56;100.00
55610;BME280;41486;52.502;13.486;2023-03-13T07:36:45;99472.59;;;7.56;100.00
55610;BME280;41486;52.502;13.486;2023-03-13T07:39:14;99468.78;;;7.60;100.00
55610;BME280;41486;52.502;13.486;2023-03-13T07:41:42;99473.91;;;7.62;100.00
55610;BME280;41486;52.502;13.486;2023-03-13T07:44:15;99470.56;;;7.60;100.00
55610;BME280;41486;52.502;13.486;2023-03-13T07:46:43;99460.28;;;7.68;100.00
55610;BME280;41486;52.502;13.486;2023-03-13T07:49:13;99458.91;;;7.64;100.00
55610;BME280;41486;52.502;13.486;2023-03-13T07:51:41;99453.16;;;7.70;100.00
55610;BME280;41486;52.502;13.486;2023-03-13T07:54:10;99442.81;;;7.68;100.00
55610;BME280;41486;52.502;13.486;2023-03-13T07:56:38;99443.00;;;7.77;100.00
55610;BME280;41486;52.502;13.486;2023-03-13T07:59:07;99441.06;;;7.79;100.00
55610;BME280;41486;52.502;13.486;2023-03-13T08:01:35;99430.09;;;7.85;100.00
55610;BME280;41486;52.502;13.486;2023-03-13T08:04:04;99435.38;;;7.73;100.00
55610;BME280;41486;52.502;13.486;2023-03-13T08:06:34;99426.09;;;7.69;100.00
55610;BME280;41486;52.502;13.486;2023-03-13T08:09:03;99419.16;;;7.80;100.00
55610;BME280;41486;52.502;13.486;2023-03-13T08:11:32;99422.44;;;7.72;100.00
55610;BME280;41486;52.502;13.486;2023-03-13T08:14:00;99409.13;;;7.85;100.00
55610;BME280;41486;52.502;13.486;2023-03-13T08:16:30;99422.53;;;7.70;100.00
55610;BME280;41486;52.502;13.486;2023-03-13T08:19:00;99427.38;;;7.75;100.00
55610;BME280;41486;52.502;13.486;2023-03-13T08:21:31;99412.97;;;7.81;100.00
55610;BME280;41486;52.502;13.486;2023-03-13T08:24:03;99406.44;;;7.75;100.00
55610;BME280;41486;52.502;13.486;2023-03-13T08:26:34;99408.25;;;7.74;100.00
55610;BME280;41486;52.502;13.486;2023-03-13T08:29:05;99408.53;;;7.81;100.00
55610;BME280;41486;52.502;13.486;2023-03-13T08:31:34;99394.47;;;7.82;100.00
55610;BME280;41486;52.502;13.486;2023-03-13T08:34:03;99401.66;;;7.80;100.00
55610;BME280;41486;52.502;13.486;2023-03-13T08:36:32;99394.56;;;7.92;100.00
55610;BME280;41486;52.502;13.486;2023-03-13T08:39:04;99396.06;;;7.95;100.00
55610;BME280;41486;52.502;13.486;2023-03-13T08:41:34;99401.03;;;7.98;100.00
55610;BME280;41486;52.502;13.486;2023-03-13T08:44:03;99386.97;;;7.99;100.00
55610;BME280;41486;52.502;13.486;2023-03-13T08:46:34;99383.53;;;7.98;100.00
55610;BME280;41486;52.502;13.486;2023-03-13T08:49:03;99392.09;;;8.00;100.00
55610;BME280;41486;52.502;13.486;2023-03-13T08:51:32;99381.66;;;8.10;100.00
55610;BME280;41486;52.502;13.486;2023-03-13T08:54:03;99381.38;;;8.13;100.00
55610;BME280;41486;52.502;13.486;2023-03-13T08:56:31;99378.34;;;8.08;100.00
55610;BME280;41486;52.502;13.486;2023-03-13T08:59:02;99382.53;;;8.20;100.00
55610;BME280;41486;52.502;13.486;2023-03-13T09:01:36;99370.81;;;8.25;100.00
55610;BME280;41486;52.502;13.486;2023-03-13T09:04:04;99366.13;;;8.28;100.00
55610;BME280;41486;52.502;13.486;2023-03-13T09:06:33;99359.34;;;8.26;100.00
55610;BME280;41486;52.502;13.486;2023-03-13T09:09:04;99354.41;;;8.32;100.00
55610;BME280;41486;52.502;13.486;2023-03-13T09:11:33;99346.25;;;8.35;100.00
55610;BME280;41486;52.502;13.486;2023-03-13T09:14:01;99340.63;;;8.40;100.00
55610;BME280;41486;52.502;13.486;2023-03-13T09:16:30;99342.84;;;8.45;100.00
55610;BME280;41486;52.502;13.486;2023-03-13T09:18:59;99344.28;;;8.49;100.00
55610;BME280;41486;52.502;13.486;2023-03-13T09:21:29;99337.78;;;8.53;100.00
55610;BME280;41486;52.502;13.486;2023-03-13T09:23:57;99335.56;;;8.58;100.00
55610;BME280;41486;52.502;13.486;2023-03-13T09:26:27;99334.91;;;8.56;100.00
55610;BME280;41486;52.502;13.486;2023-03-13T09:28:56;99340.53;;;8.61;100.00
55610;BME280;41486;52.502;13.486;2023-03-13T09:31:26;99340.41;;;8.63;100.00
55610;BME280;41486;52.502;13.486;2023-03-13T09:33:54;99336.81;;;8.64;100.00
55610;BME280;41486;52.502;13.486;2023-03-13T09:36:23;99338.63;;;8.63;100.00
55610;BME280;41486;52.502;13.486;2023-03-13T09:38:53;99344.97;;;8.71;100.00
55610;BME280;41486;52.502;13.486;2023-03-13T09:41:28;99349.66;;;8.67;100.00
55610;BME280;41486;52.502;13.486;2023-03-13T09:44:03;99337.50;;;8.66;100.00
55610;BME280;41486;52.502;13.486;2023-03-13T09:46:38;99331.84;;;8.71;100.00
55610;BME280;41486;52.502;13.486;2023-03-13T09:49:17;99327.31;;;8.73;100.00
55610;BME280;41486;52.502;13.486;2023-03-13T09:51:53;99328.69;;;8.77;100.00
55610;BME280;41486;52.502;13.486;2023-03-13T09:54:27;99324.25;;;8.77;100.00
55610;BME280;41486;52.502;13.486;2023-03-13T09:57:06;99317.38;;;8.86;100.00
55610;BME280;41486;52.502;13.486;2023-03-13T09:59:46;99320.53;;;8.80;100.00
55610;BME280;41486;52.502;13.486;2023-03-13T10:02:23;99319.72;;;8.89;100.00
55610;BME280;41486;52.502;13.486;2023-03-13T10:04:58;99311.94;;;8.97;100.00
55610;BME280;41486;52.502;13.486;2023-03-13T10:07:29;99313.34;;;9.02;100.00
55610;BME280;41486;52.502;13.486;2023-03-13T10:09:59;99317.31;;;9.06;100.00
55610;BME280;41486;52.502;13.486;2023-03-13T10:12:31;99305.44;;;9.11;100.00
55610;BME280;41486;52.502;13.486;2023-03-13T10:15:20;99322.28;;;9.19;100.00
55610;BME280;41486;52.502;13.486;2023-03-13T10:17:50;99307.50;;;9.18;100.00
55610;BME280;41486;52.502;13.486;2023-03-13T10:20:22;99320.50;;;9.19;100.00
55610;BME280;41486;52.502;13.486;2023-03-13T10:22:56;99312.34;;;9.22;100.00
55610;BME280;41486;52.502;13.486;2023-03-13T10:25:29;99310.94;;;9.28;100.00
55610;BME280;41486;52.502;13.486;2023-03-13T10:28:00;99309.81;;;9.30;100.00
55610;BME280;41486;52.502;13.486;2023-03-13T10:30:30;99311.75;;;9.38;100.00
55610;BME280;41486;52.502;13.486;2023-03-13T10:33:00;99291.00;;;9.45;100.00
55610;BME280;41486;52.502;13.486;2023-03-13T10:35:33;99291.78;;;9.55;100.00
55610;BME280;41486;52.502;13.486;2023-03-13T10:38:09;99287.06;;;9.59;100.00
55610;BME280;41486;52.502;13.486;2023-03-13T10:40:38;99286.38;;;9.67;100.00
55610;BME280;41486;52.502;13.486;2023-03-13T10:43:17;99284.97;;;9.72;100.00
55610;BME280;41486;52.502;13.486;2023-03-13T10:45:48;99279.94;;;9.79;100.00
55610;BME280;41486;52.502;13.486;2023-03-13T10:48:19;99279.06;;;9.88;100.00
55610;BME280;41486;52.502;13.486;2023-03-13T10:50:48;99265.22;;;9.96;100.00
55610;BME280;41486;52.502;13.486;2023-03-13T10:53:24;99255.97;;;10.10;100.00
55610;BME280;41486;52.502;13.486;2023-03-13T10:55:53;99281.78;;;10.24;100.00
55610;BME280;41486;52.502;13.486;2023-03-13T10:58:29;99251.13;;;10.33;100.00
55610;BME280;41486;52.502;13.486;2023-03-13T11:01:16;99253.47;;;10.54;100.00
55610;BME280;41486;52.502;13.486;2023-03-13T11:03:46;99248.63;;;10.68;100.00
55610;BME280;41486;52.502;13.486;2023-03-13T11:06:24;99248.50;;;10.69;100.00
55610;BME280;41486;52.502;13.486;2023-03-13T11:09:01;99249.91;;;10.82;100.00
55610;BME280;41486;52.502;13.486;2023-03-13T11:11:42;99245.16;;;10.85;100.00
55610;BME280;41486;52.502;13.486;2023-03-13T11:14:15;99245.72;;;10.97;100.00
55610;BME280;41486;52.502;13.486;2023-03-13T11:16:49;99225.88;;;11.03;100.00
55610;BME280;41486;52.502;13.486;2023-03-13T11:19:38;99230.44;;;11.27;100.00
55610;BME280;41486;52.502;13.486;2023-03-13T11:22:21;99221.84;;;11.51;100.00
55610;BME280;41486;52.502;13.486;2023-03-13T11:25:02;99222.38;;;11.63;100.00
55610;BME280;41486;52.502;13.486;2023-03-13T11:27:35;99236.22;;;11.65;100.00
55610;BME280;41486;52.502;13.486;2023-03-13T11:30:15;99215.72;;;11.86;100.00
55610;BME280;41486;52.502;13.486;2023-03-13T11:32:51;99219.34;;;11.93;100.00
55610;BME280;41486;52.502;13.486;2023-03-13T11:35:34;99213.41;;;11.91;100.00
55610;BME280;41486;52.502;13.486;2023-03-13T11:38:08;99217.53;;;11.93;100.00
55610;BME280;41486;52.502;13.486;2023-03-13T11:40:45;99205.31;;;11.92;100.00
55610;BME280;41486;52.502;13.486;2023-03-13T11:43:28;99215.91;;;12.01;100.00
55610;BME280;41486;52.502;13.486;2023-03-13T11:46:10;99216.44;;;12.12;100.00
55610;BME280;41486;52.502;13.486;2023-03-13T11:49:24;99211.50;;;12.34;100.00
55610;BME280;41486;52.502;13.486;2023-03-13T11:52:01;99202.09;;;12.31;100.00
55610;BME280;41486;52.502;13.486;2023-03-13T11:54:43;99226.50;;;12.25;100.00
55610;BME280;41486;52.502;13.486;2023-03-13T11:57:15;99207.06;;;12.26;100.00
55610;BME280;41486;52.502;13.486;2023-03-13T11:59:51;99213.50;;;12.32;100.00
55610;BME280;41486;52.502;13.486;2023-03-13T12:02:30;99203.94;;;12.31;100.00
55610;BME280;41486;52.502;13.486;2023-03-13T12:05:06;99211.69;;;12.41;100.00
55610;BME280;41486;52.502;13.486;2023-03-13T12:07:38;99202.13;;;12.48;100.00
55610;BME280;41486;52.502;13.486;2023-03-13T12:10:11;99206.56;;;12.56;100.00
55610;BME280;41486;52.502;13.486;2023-03-13T12:12:44;99196.84;;;12.65;100.00
55610;BME280;41486;52.502;13.486;2023-03-13T12:15:18;99202.75;;;12.75;100.00
55610;BME280;41486;52.502;13.486;2023-03-13T12:17:51;99195.41;;;13.10;100.00
55610;BME280;41486;52.502;13.486;2023-03-13T12:20:24;99186.69;;;13.09;100.00
55610;BME280;41486;52.502;13.486;2023-03-13T12:22:57;99183.22;;;13.17;100.00
55610;BME280;41486;52.502;13.486;2023-03-13T12:25:30;99183.50;;;13.22;100.00
55610;BME280;41486;52.502;13.486;2023-03-13T12:28:14;99184.94;;;13.33;100.00
55610;BME280;41486;52.502;13.486;2023-03-13T12:30:47;99183.22;;;13.57;100.00
55610;BME280;41486;52.502;13.486;2023-03-13T12:33:24;99169.59;;;13.37;100.00
55610;BME280;41486;52.502;13.486;2023-03-13T12:36:00;99170.22;;;13.79;100.00
55610;BME280;41486;52.502;13.486;2023-03-13T12:38:33;99163.50;;;13.99;100.00
55610;BME280;41486;52.502;13.486;2023-03-13T12:41:13;99174.63;;;14.18;100.00
55610;BME280;41486;52.502;13.486;2023-03-13T12:43:48;99154.16;;;14.88;100.00
55610;BME280;41486;52.502;13.486;2023-03-13T12:46:36;99161.19;;;14.19;100.00
55610;BME280;41486;52.502;13.486;2023-03-13T12:55:36;99147.03;;;16.92;90.14
55610;BME280;41486;52.502;13.486;2023-03-13T12:58:12;99168.50;;;16.62;89.39
55610;BME280;41486;52.502;13.486;2023-03-13T13:00:44;99150.41;;;16.79;88.48
55610;BME280;41486;52.502;13.486;2023-03-13T13:03:30;99141.50;;;15.87;93.69
55610;BME280;41486;52.502;13.486;2023-03-13T13:06:07;99142.03;;;16.47;91.31
55610;BME280;41486;52.502;13.486;2023-03-13T13:08:40;99133.78;;;15.92;92.83
55610;BME280;41486;52.502;13.486;2023-03-13T13:14:55;99129.56;;;17.60;82.50
55610;BME280;41486;52.502;13.486;2023-03-13T13:17:33;99138.94;;;16.72;88.40
55610;BME280;41486;52.502;13.486;2023-03-13T13:23:33;99133.69;;;16.85;87.25
55610;BME280;41486;52.502;13.486;2023-03-13T13:32:47;99132.53;;;15.73;93.60
55610;BME280;41486;52.502;13.486;2023-03-13T13:35:25;99118.75;;;15.99;91.44
55610;BME280;41486;52.502;13.486;2023-03-13T13:41:34;99107.16;;;16.57;88.04
55610;BME280;41486;52.502;13.486;2023-03-13T13:44:24;99111.69;;;16.35;87.73